»·PEaware :: UAL2086 KSMF-KSFO

UAL2086 :: KSMF-KSFO

FLIGHT INFORMATION

Flight Status: Arrived
Operator:
United Airlines
More flights by this operator :: More flights under this callsign
Pilot: Ryan L. (9775)
Aircraft: BOEING 737-800
(B738)
More flights by this aircraft type
Origin: KSMF Sacramento Intl
United States
Destination: KSFO San Francisco Intl
United States
More flights between these airports :: More routes between these airports
Route: +THORN ALWYS CEDES ARCHI
File this flight plan on PilotEdge
Remarks:
Altitude:
(Current/Filed)
14,000ft
Speed:
(Current/Filed)
350kts
Departed: 09-Jan-18 06:57 PM
Arrived: 09-Jan-18 07:30 PM
Distance/Time
Traveled:
75nm/0:33
Distance/Time
To Go:
Arrived

Flight Plot

Page will automatically refresh every two minutes.

Flight plan parsing failed; only flown route is shown


Map Options




Map Legend


Flown Route
Filed Route
Departure Airport
Arrival Airport
Navaid (VOR, NDB)
Fix

Horizontal Profiles

Position Reports

Time Latitude Longitude Heading Altitude Ground
Speed
09-Jan-18 18:28 38.694474 -121.588226 138 32ft 0kts
09-Jan-18 18:29 38.694474 -121.588226 138 32ft 0kts
09-Jan-18 18:30 38.694474 -121.588226 138 32ft 0kts
09-Jan-18 18:31 38.694474 -121.588226 138 32ft 0kts
09-Jan-18 18:32 38.694474 -121.588226 138 32ft 0kts
09-Jan-18 18:33 38.694474 -121.588226 138 32ft 0kts
09-Jan-18 18:34 38.694474 -121.588226 138 32ft 0kts
09-Jan-18 18:35 38.694474 -121.588226 138 32ft 0kts
09-Jan-18 18:36 38.694474 -121.588226 138 32ft 0kts
09-Jan-18 18:37 38.694474 -121.588226 138 32ft 0kts
09-Jan-18 18:38 38.694474 -121.588226 138 32ft 0kts
09-Jan-18 18:39 38.694474 -121.588226 138 32ft 0kts
09-Jan-18 18:40 38.694474 -121.588226 138 32ft 0kts
09-Jan-18 18:41 38.694474 -121.588226 138 32ft 0kts
09-Jan-18 18:42 38.694474 -121.588226 138 32ft 0kts
09-Jan-18 18:43 38.694474 -121.588226 138 32ft 0kts
09-Jan-18 18:44 38.694474 -121.588226 138 32ft 0kts
09-Jan-18 18:45 38.694474 -121.588226 138 32ft 0kts
09-Jan-18 18:46 38.694474 -121.588226 138 32ft 0kts
09-Jan-18 18:47 38.694474 -121.588226 138 32ft 0kts
09-Jan-18 18:48 38.694474 -121.588226 138 32ft 0kts
09-Jan-18 18:49 38.694747 -121.588474 150 32ft 2kts
09-Jan-18 18:50 38.695261 -121.588853 123 32ft 1kts
09-Jan-18 18:51 38.694950 -121.589204 3 32ft 0kts
09-Jan-18 18:52 38.694936 -121.589205 3 32ft 0kts
09-Jan-18 18:53 38.694936 -121.589205 3 32ft 0kts
09-Jan-18 18:54 38.694936 -121.589205 3 32ft 0kts
09-Jan-18 18:55 38.695326 -121.589173 3 32ft 4kts
09-Jan-18 18:56 38.695794 -121.589140 0 32ft 6kts
09-Jan-18 18:57 38.696887 -121.586225 90 32ft 20kts
09-Jan-18 18:58 38.699778 -121.582801 0 32ft 15kts
09-Jan-18 18:59 38.703715 -121.582739 359 32ft 16kts
09-Jan-18 19:00 38.707003 -121.581565 87 32ft 0kts
09-Jan-18 19:01 38.707003 -121.581565 87 32ft 0kts
09-Jan-18 19:02 38.706958 -121.580374 111 32ft 9kts
09-Jan-18 19:03 38.696584 -121.580250 180 33ft 126kts
09-Jan-18 19:04 38.657872 -121.565002 129 1647ft 167kts
09-Jan-18 19:05 38.622867 -121.512882 129 2876ft 221kts
09-Jan-18 19:06 38.583353 -121.446485 131 4685ft 262kts
09-Jan-18 19:07 38.535133 -121.374850 132 7215ft 276kts
09-Jan-18 19:08 38.486526 -121.302837 132 9471ft 289kts
09-Jan-18 19:09 38.431696 -121.221842 132 11160ft 325kts
09-Jan-18 19:10 38.372151 -121.134019 132 13326ft 339kts
09-Jan-18 19:11 38.298708 -121.062559 173 14988ft 354kts
09-Jan-18 19:12 38.197396 -121.045880 176 14990ft 373kts
09-Jan-18 19:13 38.111900 -121.032710 176 14979ft 372kts
09-Jan-18 19:14 37.993245 -121.014537 175 14984ft 371kts
09-Jan-18 19:15 37.892791 -120.999146 176 14981ft 371kts
09-Jan-18 19:16 37.791279 -120.983612 175 14982ft 370kts
09-Jan-18 19:17 37.690232 -120.968122 175 14982ft 369kts
09-Jan-18 19:18 37.607550 -120.965783 207 14975ft 360kts
09-Jan-18 19:19 37.586360 -121.070265 300 15002ft 356kts
09-Jan-18 19:20 37.600683 -121.207624 264 14981ft 352kts
09-Jan-18 19:21 37.589770 -121.306414 262 14958ft 321kts
09-Jan-18 19:22 37.576579 -121.414894 262 13993ft 316kts
09-Jan-18 19:23 37.563331 -121.522664 262 12443ft 306kts
09-Jan-18 19:24 37.550701 -121.625593 260 11015ft 291kts
09-Jan-18 19:25 37.528074 -121.720554 253 9769ft 281kts
09-Jan-18 19:26 37.506637 -121.809337 254 8780ft 256kts
09-Jan-18 19:27 37.491142 -121.892228 274 7778ft 243kts
09-Jan-18 19:28 37.496291 -121.972308 274 6519ft 240kts
09-Jan-18 19:29 37.501187 -122.055386 274 5258ft 236kts
09-Jan-18 19:30 37.518871 -122.131925 297 4079ft 224kts
09-Jan-18 19:31 37.546742 -122.198336 298 2885ft 204kts
09-Jan-18 19:32 37.571066 -122.256073 298 1817ft 165kts
09-Jan-18 19:33 37.590100 -122.301317 297 1017ft 141kts
09-Jan-18 19:34 37.608053 -122.343793 296 292ft 135kts
09-Jan-18 19:35 37.622857 -122.379392 297 20ft 63kts
09-Jan-18 19:36 37.624989 -122.387901 258 20ft 12kts
09-Jan-18 19:37 37.623025 -122.389761 191 21ft 3kts
09-Jan-18 19:38 37.623002 -122.389767 190 21ft 1kts
09-Jan-18 19:39 37.621288 -122.387660 168 20ft 11kts
09-Jan-18 19:40 37.620716 -122.387771 202 20ft 0kts
09-Jan-18 19:41 37.620716 -122.387771 202 20ft 0kts
09-Jan-18 19:42 37.620716 -122.387771 202 20ft 0kts
09-Jan-18 19:43 37.620716 -122.387771 202 20ft 0kts
09-Jan-18 19:44 37.620716 -122.387771 202 20ft 0kts
09-Jan-18 19:45 37.620716 -122.387771 202 20ft 0kts
09-Jan-18 19:46 37.620716 -122.387771 202 20ft 0kts
09-Jan-18 19:47 37.620716 -122.387771 202 20ft 0kts
09-Jan-18 19:48 37.620716 -122.387771 202 20ft 0kts
09-Jan-18 19:49 37.620716 -122.387771 202 20ft 0kts
09-Jan-18 19:50 37.620716 -122.387771 202 20ft 0kts

Navigation Log

Ident Type
Flight plan parsing failed, navigation log unavailable